sensor_id;sensor_type;location;lat;lon;timestamp;temperature;humidity
2363;DHT22;64265;51.664;7.626;2024-03-22T00:02:16;22.10;77.80
2363;DHT22;64265;51.664;7.626;2024-03-22T00:04:42;22.10;77.90
2363;DHT22;64265;51.664;7.626;2024-03-22T00:07:08;22.10;78.00
2363;DHT22;64265;51.664;7.626;2024-03-22T00:09:34;22.10;78.00
2363;DHT22;64265;51.664;7.626;2024-03-22T00:12:01;22.00;78.00
2363;DHT22;64265;51.664;7.626;2024-03-22T00:14:27;22.00;78.10
2363;DHT22;64265;51.664;7.626;2024-03-22T00:16:53;22.00;78.00
2363;DHT22;64265;51.664;7.626;2024-03-22T00:19:20;22.00;78.10
2363;DHT22;64265;51.664;7.626;2024-03-22T00:21:47;22.00;78.10
2363;DHT22;64265;51.664;7.626;2024-03-22T00:24:13;22.00;78.10
2363;DHT22;64265;51.664;7.626;2024-03-22T00:26:40;22.00;78.20
2363;DHT22;64265;51.664;7.626;2024-03-22T00:29:05;21.90;78.20
2363;DHT22;64265;51.664;7.626;2024-03-22T00:31:32;21.90;78.20
2363;DHT22;64265;51.664;7.626;2024-03-22T00:33:58;21.90;78.20
2363;DHT22;64265;51.664;7.626;2024-03-22T00:36:26;21.90;78.30
2363;DHT22;64265;51.664;7.626;2024-03-22T00:38:52;21.80;78.30
2363;DHT22;64265;51.664;7.626;2024-03-22T00:41:18;21.80;78.40
2363;DHT22;64265;51.664;7.626;2024-03-22T00:43:44;21.80;78.40
2363;DHT22;64265;51.664;7.626;2024-03-22T00:46:11;21.80;78.60
2363;DHT22;64265;51.664;7.626;2024-03-22T00:48:37;21.80;78.60
2363;DHT22;64265;51.664;7.626;2024-03-22T00:51:04;21.70;78.60
2363;DHT22;64265;51.664;7.626;2024-03-22T00:53:31;21.70;78.70
2363;DHT22;64265;51.664;7.626;2024-03-22T00:55:58;21.70;78.70
2363;DHT22;64265;51.664;7.626;2024-03-22T00:58:25;21.70;78.80
2363;DHT22;64265;51.664;7.626;2024-03-22T01:00:52;21.60;78.80
2363;DHT22;64265;51.664;7.626;2024-03-22T01:03:18;21.60;78.90
2363;DHT22;64265;51.664;7.626;2024-03-22T01:05:45;21.60;78.90
2363;DHT22;64265;51.664;7.626;2024-03-22T01:08:11;21.60;79.10
2363;DHT22;64265;51.664;7.626;2024-03-22T01:10:39;21.50;79.00
2363;DHT22;64265;51.664;7.626;2024-03-22T01:13:05;21.50;79.20
2363;DHT22;64265;51.664;7.626;2024-03-22T01:15:32;21.50;79.20
2363;DHT22;64265;51.664;7.626;2024-03-22T01:17:58;21.50;79.30
2363;DHT22;64265;51.664;7.626;2024-03-22T01:20:24;21.40;79.30
2363;DHT22;64265;51.664;7.626;2024-03-22T01:22:50;21.40;79.50
2363;DHT22;64265;51.664;7.626;2024-03-22T01:25:17;21.40;79.60
2363;DHT22;64265;51.664;7.626;2024-03-22T01:27:44;21.40;79.70
2363;DHT22;64265;51.664;7.626;2024-03-22T01:30:11;21.30;79.60
2363;DHT22;64265;51.664;7.626;2024-03-22T01:32:37;21.30;79.70
2363;DHT22;64265;51.664;7.626;2024-03-22T01:35:04;21.30;79.80
2363;DHT22;64265;51.664;7.626;2024-03-22T01:37:30;21.30;79.90
2363;DHT22;64265;51.664;7.626;2024-03-22T01:39:56;21.30;80.00
2363;DHT22;64265;51.664;7.626;2024-03-22T01:42:23;21.20;80.80
2363;DHT22;64265;51.664;7.626;2024-03-22T01:44:51;21.20;80.20
2363;DHT22;64265;51.664;7.626;2024-03-22T01:47:17;21.20;80.30
2363;DHT22;64265;51.664;7.626;2024-03-22T01:49:44;21.10;80.30
2363;DHT22;64265;51.664;7.626;2024-03-22T01:52:10;21.10;80.40
2363;DHT22;64265;51.664;7.626;2024-03-22T01:54:37;21.10;80.60
2363;DHT22;64265;51.664;7.626;2024-03-22T01:57:02;21.10;80.70
2363;DHT22;64265;51.664;7.626;2024-03-22T01:59:30;21.00;80.70
2363;DHT22;64265;51.664;7.626;2024-03-22T02:01:57;21.00;80.80
2363;DHT22;64265;51.664;7.626;2024-03-22T02:04:24;21.00;80.90
2363;DHT22;64265;51.664;7.626;2024-03-22T02:06:49;21.00;81.10
2363;DHT22;64265;51.664;7.626;2024-03-22T02:09:16;20.90;81.10
2363;DHT22;64265;51.664;7.626;2024-03-22T02:11:42;20.90;81.20
2363;DHT22;64265;51.664;7.626;2024-03-22T02:14:09;20.90;81.40
2363;DHT22;64265;51.664;7.626;2024-03-22T02:16:35;20.90;81.40
2363;DHT22;64265;51.664;7.626;2024-03-22T02:19:03;20.90;81.50
2363;DHT22;64265;51.664;7.626;2024-03-22T02:21:29;20.80;81.50
2363;DHT22;64265;51.664;7.626;2024-03-22T02:23:57;20.80;81.60
2363;DHT22;64265;51.664;7.626;2024-03-22T02:26:22;20.80;81.70
2363;DHT22;64265;51.664;7.626;2024-03-22T02:28:49;20.80;81.80
2363;DHT22;64265;51.664;7.626;2024-03-22T02:31:15;20.70;81.70
2363;DHT22;64265;51.664;7.626;2024-03-22T02:33:41;20.70;81.80
2363;DHT22;64265;51.664;7.626;2024-03-22T02:36:08;20.70;82.00
2363;DHT22;64265;51.664;7.626;2024-03-22T02:38:35;20.70;82.00
2363;DHT22;64265;51.664;7.626;2024-03-22T02:41:03;20.70;82.10
2363;DHT22;64265;51.664;7.626;2024-03-22T02:43:29;20.70;82.10
2363;DHT22;64265;51.664;7.626;2024-03-22T02:45:56;20.70;82.20
2363;DHT22;64265;51.664;7.626;2024-03-22T02:48:21;20.60;82.10
2363;DHT22;64265;51.664;7.626;2024-03-22T02:50:48;20.60;82.30
2363;DHT22;64265;51.664;7.626;2024-03-22T02:53:14;20.60;82.30
2363;DHT22;64265;51.664;7.626;2024-03-22T02:55:41;20.60;82.40
2363;DHT22;64265;51.664;7.626;2024-03-22T02:58:08;20.60;82.40
2363;DHT22;64265;51.664;7.626;2024-03-22T03:00:36;20.60;82.50
2363;DHT22;64265;51.664;7.626;2024-03-22T03:03:02;20.60;82.60
2363;DHT22;64265;51.664;7.626;2024-03-22T03:05:29;20.60;82.60
2363;DHT22;64265;51.664;7.626;2024-03-22T03:07:54;20.50;82.60
2363;DHT22;64265;51.664;7.626;2024-03-22T03:10:21;20.50;82.80
2363;DHT22;64265;51.664;7.626;2024-03-22T03:12:47;20.50;83.60
2363;DHT22;64265;51.664;7.626;2024-03-22T03:15:16;20.50;82.90
2363;DHT22;64265;51.664;7.626;2024-03-22T03:17:41;20.40;82.90
2363;DHT22;64265;51.664;7.626;2024-03-22T03:20:09;20.40;83.00
2363;DHT22;64265;51.664;7.626;2024-03-22T03:22:38;20.40;83.10
2363;DHT22;64265;51.664;7.626;2024-03-22T03:25:06;20.40;83.10
2363;DHT22;64265;51.664;7.626;2024-03-22T03:27:32;20.40;83.20
2363;DHT22;64265;51.664;7.626;2024-03-22T03:29:59;20.40;83.30
2363;DHT22;64265;51.664;7.626;2024-03-22T03:32:26;20.40;83.40
2363;DHT22;64265;51.664;7.626;2024-03-22T03:34:53;20.30;83.30
2363;DHT22;64265;51.664;7.626;2024-03-22T03:37:18;20.30;83.40
2363;DHT22;64265;51.664;7.626;2024-03-22T03:39:45;20.30;83.50
2363;DHT22;64265;51.664;7.626;2024-03-22T03:42:11;20.30;83.60
2363;DHT22;64265;51.664;7.626;2024-03-22T03:44:38;20.30;83.70
2363;DHT22;64265;51.664;7.626;2024-03-22T03:47:04;20.30;83.70
2363;DHT22;64265;51.664;7.626;2024-03-22T03:49:32;20.20;83.70
2363;DHT22;64265;51.664;7.626;2024-03-22T03:51:58;20.20;83.70
2363;DHT22;64265;51.664;7.626;2024-03-22T03:54:25;20.20;83.80
2363;DHT22;64265;51.664;7.626;2024-03-22T03:56:50;20.20;83.90
2363;DHT22;64265;51.664;7.626;2024-03-22T03:59:17;20.20;84.00
2363;DHT22;64265;51.664;7.626;2024-03-22T04:01:43;20.20;84.00
2363;DHT22;64265;51.664;7.626;2024-03-22T04:04:10;20.10;84.00
2363;DHT22;64265;51.664;7.626;2024-03-22T04:06:37;20.10;84.00
2363;DHT22;64265;51.664;7.626;2024-03-22T04:09:04;20.10;84.20
2363;DHT22;64265;51.664;7.626;2024-03-22T04:11:30;20.10;84.30
2363;DHT22;64265;51.664;7.626;2024-03-22T04:13:57;20.10;84.30
2363;DHT22;64265;51.664;7.626;2024-03-22T04:16:23;20.10;84.30
2363;DHT22;64265;51.664;7.626;2024-03-22T04:18:50;20.10;84.40
2363;DHT22;64265;51.664;7.626;2024-03-22T04:21:15;20.10;84.50
2363;DHT22;64265;51.664;7.626;2024-03-22T04:23:43;20.00;84.40
2363;DHT22;64265;51.664;7.626;2024-03-22T04:26:09;20.00;84.50
2363;DHT22;64265;51.664;7.626;2024-03-22T04:28:36;20.00;84.60
2363;DHT22;64265;51.664;7.626;2024-03-22T04:31:03;20.00;84.60
2363;DHT22;64265;51.664;7.626;2024-03-22T04:33:30;20.00;84.70
2363;DHT22;64265;51.664;7.626;2024-03-22T04:35:57;19.90;84.70
2363;DHT22;64265;51.664;7.626;2024-03-22T04:38:24;19.90;84.80
2363;DHT22;64265;51.664;7.626;2024-03-22T04:40:53;20.00;85.00
2363;DHT22;64265;51.664;7.626;2024-03-22T04:43:20;19.90;84.90
2363;DHT22;64265;51.664;7.626;2024-03-22T04:45:47;19.90;85.00
2363;DHT22;64265;51.664;7.626;2024-03-22T04:48:16;19.90;85.10
2363;DHT22;64265;51.664;7.626;2024-03-22T04:50:42;19.90;85.20
2363;DHT22;64265;51.664;7.626;2024-03-22T04:53:08;19.90;85.30
2363;DHT22;64265;51.664;7.626;2024-03-22T04:55:34;19.90;85.40
2363;DHT22;64265;51.664;7.626;2024-03-22T04:58:02;19.80;85.30
2363;DHT22;64265;51.664;7.626;2024-03-22T05:00:28;19.80;85.40
2363;DHT22;64265;51.664;7.626;2024-03-22T05:02:55;19.80;85.50
2363;DHT22;64265;51.664;7.626;2024-03-22T05:05:21;19.80;85.50
2363;DHT22;64265;51.664;7.626;2024-03-22T05:07:47;19.80;85.60
2363;DHT22;64265;51.664;7.626;2024-03-22T05:10:13;19.70;85.60
2363;DHT22;64265;51.664;7.626;2024-03-22T05:12:42;19.70;85.60
2363;DHT22;64265;51.664;7.626;2024-03-22T05:15:10;19.70;85.70
2363;DHT22;64265;51.664;7.626;2024-03-22T05:17:36;19.70;85.80
2363;DHT22;64265;51.664;7.626;2024-03-22T05:20:05;19.70;85.90
2363;DHT22;64265;51.664;7.626;2024-03-22T05:22:31;19.70;85.90
2363;DHT22;64265;51.664;7.626;2024-03-22T05:24:58;19.70;86.00
2363;DHT22;64265;51.664;7.626;2024-03-22T05:27:23;19.70;86.10
2363;DHT22;64265;51.664;7.626;2024-03-22T05:29:50;19.70;86.20
2363;DHT22;64265;51.664;7.626;2024-03-22T05:32:17;19.60;86.10
2363;DHT22;64265;51.664;7.626;2024-03-22T05:34:44;19.60;86.20
2363;DHT22;64265;51.664;7.626;2024-03-22T05:37:10;19.60;86.20
2363;DHT22;64265;51.664;7.626;2024-03-22T05:39:37;19.60;86.40
2363;DHT22;64265;51.664;7.626;2024-03-22T05:42:03;19.60;86.40
2363;DHT22;64265;51.664;7.626;2024-03-22T05:44:29;19.60;86.50
2363;DHT22;64265;51.664;7.626;2024-03-22T05:46:55;19.50;86.40
2363;DHT22;64265;51.664;7.626;2024-03-22T05:49:23;19.50;86.50
2363;DHT22;64265;51.664;7.626;2024-03-22T05:51:49;19.50;86.50
2363;DHT22;64265;51.664;7.626;2024-03-22T05:54:16;19.50;86.70
2363;DHT22;64265;51.664;7.626;2024-03-22T05:56:42;19.50;86.70
2363;DHT22;64265;51.664;7.626;2024-03-22T05:59:08;19.50;86.70
2363;DHT22;64265;51.664;7.626;2024-03-22T06:01:35;19.50;86.80
2363;DHT22;64265;51.664;7.626;2024-03-22T06:04:03;19.50;86.90
2363;DHT22;64265;51.664;7.626;2024-03-22T06:06:31;19.50;87.00
2363;DHT22;64265;51.664;7.626;2024-03-22T06:08:58;19.40;86.90
2363;DHT22;64265;51.664;7.626;2024-03-22T06:11:26;19.40;87.10
2363;DHT22;64265;51.664;7.626;2024-03-22T06:13:52;19.40;87.00
2363;DHT22;64265;51.664;7.626;2024-03-22T06:16:18;19.40;87.10
2363;DHT22;64265;51.664;7.626;2024-03-22T06:18:45;19.40;87.10
2363;DHT22;64265;51.664;7.626;2024-03-22T06:21:11;19.40;87.20
2363;DHT22;64265;51.664;7.626;2024-03-22T06:23:41;19.40;87.30
2363;DHT22;64265;51.664;7.626;2024-03-22T06:26:07;19.40;87.30
2363;DHT22;64265;51.664;7.626;2024-03-22T06:28:34;19.40;87.30
2363;DHT22;64265;51.664;7.626;2024-03-22T06:30:59;19.40;87.50
2363;DHT22;64265;51.664;7.626;2024-03-22T06:33:26;19.40;87.40
2363;DHT22;64265;51.664;7.626;2024-03-22T06:35:52;19.30;87.40
2363;DHT22;64265;51.664;7.626;2024-03-22T06:38:19;19.30;87.40
2363;DHT22;64265;51.664;7.626;2024-03-22T06:40:46;19.30;87.50
2363;DHT22;64265;51.664;7.626;2024-03-22T06:43:12;19.30;87.50
2363;DHT22;64265;51.664;7.626;2024-03-22T06:45:38;19.30;87.60
2363;DHT22;64265;51.664;7.626;2024-03-22T06:48:05;19.30;87.60
2363;DHT22;64265;51.664;7.626;2024-03-22T06:50:31;19.30;87.60
2363;DHT22;64265;51.664;7.626;2024-03-22T06:52:58;19.30;87.70
2363;DHT22;64265;51.664;7.626;2024-03-22T06:55:23;19.30;88.50
2363;DHT22;64265;51.664;7.626;2024-03-22T06:57:51;19.30;87.80
2363;DHT22;64265;51.664;7.626;2024-03-22T07:00:18;19.20;87.70
2363;DHT22;64265;51.664;7.626;2024-03-22T07:02:46;19.30;87.90
2363;DHT22;64265;51.664;7.626;2024-03-22T07:05:11;19.20;87.70
2363;DHT22;64265;51.664;7.626;2024-03-22T07:07:38;19.20;87.80
2363;DHT22;64265;51.664;7.626;2024-03-22T07:10:05;19.20;87.80
2363;DHT22;64265;51.664;7.626;2024-03-22T07:12:32;19.20;87.80
2363;DHT22;64265;51.664;7.626;2024-03-22T07:14:59;19.20;87.80
2363;DHT22;64265;51.664;7.626;2024-03-22T07:17:26;19.20;87.80
2363;DHT22;64265;51.664;7.626;2024-03-22T07:19:52;19.20;87.80
2363;DHT22;64265;51.664;7.626;2024-03-22T07:22:19;19.20;87.90
2363;DHT22;64265;51.664;7.626;2024-03-22T07:24:45;19.20;87.90
2363;DHT22;64265;51.664;7.626;2024-03-22T07:27:12;19.20;87.90
2363;DHT22;64265;51.664;7.626;2024-03-22T07:29:39;19.20;87.90
2363;DHT22;64265;51.664;7.626;2024-03-22T07:32:07;19.20;88.00
2363;DHT22;64265;51.664;7.626;2024-03-22T07:34:33;19.20;88.00
2363;DHT22;64265;51.664;7.626;2024-03-22T07:37:00;19.20;88.30
2363;DHT22;64265;51.664;7.626;2024-03-22T07:39:25;19.30;88.30
2363;DHT22;64265;51.664;7.626;2024-03-22T07:41:52;19.40;88.10
2363;DHT22;64265;51.664;7.626;2024-03-22T07:44:18;19.50;88.00
2363;DHT22;64265;51.664;7.626;2024-03-22T07:46:45;19.50;87.80
2363;DHT22;64265;51.664;7.626;2024-03-22T07:49:12;19.60;87.60
2363;DHT22;64265;51.664;7.626;2024-03-22T07:51:39;19.70;87.50
2363;DHT22;64265;51.664;7.626;2024-03-22T07:54:05;19.70;87.40
2363;DHT22;64265;51.664;7.626;2024-03-22T07:56:32;19.80;87.20
2363;DHT22;64265;51.664;7.626;2024-03-22T07:58:57;19.80;87.00
2363;DHT22;64265;51.664;7.626;2024-03-22T08:01:25;19.90;86.90
2363;DHT22;64265;51.664;7.626;2024-03-22T08:03:51;19.90;86.70
2363;DHT22;64265;51.664;7.626;2024-03-22T08:06:20;20.00;86.70
2363;DHT22;64265;51.664;7.626;2024-03-22T08:08:46;20.10;86.50
2363;DHT22;64265;51.664;7.626;2024-03-22T08:11:12;20.10;86.30
2363;DHT22;64265;51.664;7.626;2024-03-22T08:13:38;20.10;86.10
2363;DHT22;64265;51.664;7.626;2024-03-22T08:16:05;20.10;86.00
2363;DHT22;64265;51.664;7.626;2024-03-22T08:18:31;20.20;85.90
2363;DHT22;64265;51.664;7.626;2024-03-22T08:20:58;20.20;85.80
2363;DHT22;64265;51.664;7.626;2024-03-22T08:23:25;20.20;85.60
2363;DHT22;64265;51.664;7.626;2024-03-22T08:25:52;20.20;85.50
2363;DHT22;64265;51.664;7.626;2024-03-22T08:28:18;20.30;85.40
2363;DHT22;64265;51.664;7.626;2024-03-22T08:30:45;20.30;85.30
2363;DHT22;64265;51.664;7.626;2024-03-22T08:33:11;20.30;85.90
2363;DHT22;64265;51.664;7.626;2024-03-22T08:35:37;20.40;85.20
2363;DHT22;64265;51.664;7.626;2024-03-22T08:38:04;20.40;85.10
2363;DHT22;64265;51.664;7.626;2024-03-22T08:40:36;20.40;84.80
2363;DHT22;64265;51.664;7.626;2024-03-22T08:43:03;20.50;85.60
2363;DHT22;64265;51.664;7.626;2024-03-22T08:45:30;20.50;84.50
2363;DHT22;64265;51.664;7.626;2024-03-22T08:47:55;20.50;84.30
2363;DHT22;64265;51.664;7.626;2024-03-22T08:50:22;20.60;84.10
2363;DHT22;64265;51.664;7.626;2024-03-22T08:52:48;20.60;83.90
2363;DHT22;64265;51.664;7.626;2024-03-22T08:55:15;20.60;83.60
2363;DHT22;64265;51.664;7.626;2024-03-22T08:57:43;20.70;83.70
2363;DHT22;64265;51.664;7.626;2024-03-22T09:00:10;20.70;83.40
2363;DHT22;64265;51.664;7.626;2024-03-22T09:02:37;20.80;83.80
2363;DHT22;64265;51.664;7.626;2024-03-22T09:05:04;20.80;82.90
2363;DHT22;64265;51.664;7.626;2024-03-22T09:07:30;20.80;83.50
2363;DHT22;64265;51.664;7.626;2024-03-22T09:09:56;20.90;82.80
2363;DHT22;64265;51.664;7.626;2024-03-22T09:12:23;20.90;83.20
2363;DHT22;64265;51.664;7.626;2024-03-22T09:14:50;20.90;83.10
2363;DHT22;64265;51.664;7.626;2024-03-22T09:17:17;21.00;83.10
2363;DHT22;64265;51.664;7.626;2024-03-22T09:19:43;21.00;82.80
2363;DHT22;64265;51.664;7.626;2024-03-22T09:22:10;21.00;82.90
2363;DHT22;64265;51.664;7.626;2024-03-22T09:24:35;21.00;82.70
2363;DHT22;64265;51.664;7.626;2024-03-22T09:27:03;21.10;82.80
2363;DHT22;64265;51.664;7.626;2024-03-22T09:29:34;21.10;82.30
2363;DHT22;64265;51.664;7.626;2024-03-22T09:32:02;21.10;82.10
2363;DHT22;64265;51.664;7.626;2024-03-22T09:34:28;21.20;81.90
2363;DHT22;64265;51.664;7.626;2024-03-22T09:36:55;21.20;81.60
2363;DHT22;64265;51.664;7.626;2024-03-22T09:39:20;21.20;81.30
2363;DHT22;64265;51.664;7.626;2024-03-22T09:41:47;21.20;81.00
2363;DHT22;64265;51.664;7.626;2024-03-22T09:44:15;21.30;80.90
2363;DHT22;64265;51.664;7.626;2024-03-22T09:46:44;21.30;80.70
2363;DHT22;64265;51.664;7.626;2024-03-22T09:49:13;21.30;80.30
2363;DHT22;64265;51.664;7.626;2024-03-22T09:51:41;21.40;80.10
2363;DHT22;64265;51.664;7.626;2024-03-22T09:54:08;21.40;79.90
2363;DHT22;64265;51.664;7.626;2024-03-22T09:56:36;21.40;79.70
2363;DHT22;64265;51.664;7.626;2024-03-22T09:59:03;21.40;79.40
2363;DHT22;64265;51.664;7.626;2024-03-22T10:01:31;21.40;79.20
2363;DHT22;64265;51.664;7.626;2024-03-22T10:03:57;21.50;79.10
2363;DHT22;64265;51.664;7.626;2024-03-22T10:06:25;21.50;78.90
2363;DHT22;64265;51.664;7.626;2024-03-22T10:08:51;21.50;78.70
2363;DHT22;64265;51.664;7.626;2024-03-22T10:11:18;21.60;78.50
2363;DHT22;64265;51.664;7.626;2024-03-22T10:13:44;21.60;78.30
2363;DHT22;64265;51.664;7.626;2024-03-22T10:16:12;21.70;78.20
2363;DHT22;64265;51.664;7.626;2024-03-22T10:18:38;21.70;78.00
2363;DHT22;64265;51.664;7.626;2024-03-22T10:21:05;21.70;77.70
2363;DHT22;64265;51.664;7.626;2024-03-22T10:23:32;21.80;77.60
2363;DHT22;64265;51.664;7.626;2024-03-22T10:26:00;21.80;77.30
2363;DHT22;64265;51.664;7.626;2024-03-22T10:28:26;21.90;77.20
2363;DHT22;64265;51.664;7.626;2024-03-22T10:30:53;21.90;77.00
2363;DHT22;64265;51.664;7.626;2024-03-22T10:33:19;21.90;76.80
2363;DHT22;64265;51.664;7.626;2024-03-22T10:35:50;22.00;76.70
2363;DHT22;64265;51.664;7.626;2024-03-22T10:38:18;21.90;76.40
2363;DHT22;64265;51.664;7.626;2024-03-22T10:40:47;22.00;76.30
2363;DHT22;64265;51.664;7.626;2024-03-22T10:43:13;22.00;76.10
2363;DHT22;64265;51.664;7.626;2024-03-22T10:45:40;22.10;75.60
2363;DHT22;64265;51.664;7.626;2024-03-22T10:48:09;22.10;75.60
2363;DHT22;64265;51.664;7.626;2024-03-22T10:50:38;22.10;75.40
2363;DHT22;64265;51.664;7.626;2024-03-22T10:53:07;22.10;75.80
2363;DHT22;64265;51.664;7.626;2024-03-22T10:55:36;22.20;75.90
2363;DHT22;64265;51.664;7.626;2024-03-22T10:58:04;22.20;76.20
2363;DHT22;64265;51.664;7.626;2024-03-22T11:00:32;22.30;76.70
2363;DHT22;64265;51.664;7.626;2024-03-22T11:02:58;22.30;77.30
2363;DHT22;64265;51.664;7.626;2024-03-22T11:05:26;22.30;77.40
2363;DHT22;64265;51.664;7.626;2024-03-22T11:07:59;22.40;77.80
2363;DHT22;64265;51.664;7.626;2024-03-22T11:10:28;22.40;78.20
2363;DHT22;64265;51.664;7.626;2024-03-22T11:12:55;22.30;78.60
2363;DHT22;64265;51.664;7.626;2024-03-22T11:15:23;22.40;79.20
2363;DHT22;64265;51.664;7.626;2024-03-22T11:17:49;22.40;79.30
2363;DHT22;64265;51.664;7.626;2024-03-22T11:20:16;22.50;79.20
2363;DHT22;64265;51.664;7.626;2024-03-22T11:22:42;22.50;79.10
2363;DHT22;64265;51.664;7.626;2024-03-22T11:25:09;22.60;79.20
2363;DHT22;64265;51.664;7.626;2024-03-22T11:27:35;22.60;79.00
2363;DHT22;64265;51.664;7.626;2024-03-22T11:30:02;22.60;78.90
2363;DHT22;64265;51.664;7.626;2024-03-22T11:32:30;22.60;78.80
2363;DHT22;64265;51.664;7.626;2024-03-22T11:34:56;22.70;78.80
2363;DHT22;64265;51.664;7.626;2024-03-22T11:37:22;22.70;78.70
2363;DHT22;64265;51.664;7.626;2024-03-22T11:39:49;22.70;78.70
2363;DHT22;64265;51.664;7.626;2024-03-22T11:42:15;22.80;78.70
2363;DHT22;64265;51.664;7.626;2024-03-22T11:44:43;22.80;78.60
2363;DHT22;64265;51.664;7.626;2024-03-22T11:47:09;22.80;78.50
2363;DHT22;64265;51.664;7.626;2024-03-22T11:49:37;22.80;78.40
2363;DHT22;64265;51.664;7.626;2024-03-22T11:52:03;22.80;78.40
2363;DHT22;64265;51.664;7.626;2024-03-22T11:54:30;22.80;78.30
2363;DHT22;64265;51.664;7.626;2024-03-22T11:56:56;22.90;78.40
2363;DHT22;64265;51.664;7.626;2024-03-22T11:59:23;22.90;78.30
2363;DHT22;64265;51.664;7.626;2024-03-22T12:01:49;22.90;78.20
2363;DHT22;64265;51.664;7.626;2024-03-22T12:04:15;22.90;78.20
2363;DHT22;64265;51.664;7.626;2024-03-22T12:06:43;22.90;78.20
2363;DHT22;64265;51.664;7.626;2024-03-22T12:09:10;22.90;78.10
2363;DHT22;64265;51.664;7.626;2024-03-22T12:11:37;23.00;78.20
2363;DHT22;64265;51.664;7.626;2024-03-22T12:14:04;23.00;78.10
2363;DHT22;64265;51.664;7.626;2024-03-22T12:16:30;23.00;78.10
2363;DHT22;64265;51.664;7.626;2024-03-22T12:18:57;23.00;78.10
2363;DHT22;64265;51.664;7.626;2024-03-22T12:21:23;23.00;78.00
2363;DHT22;64265;51.664;7.626;2024-03-22T12:23:51;23.00;78.00
2363;DHT22;64265;51.664;7.626;2024-03-22T12:26:17;23.00;77.80
2363;DHT22;64265;51.664;7.626;2024-03-22T12:28:43;23.00;77.90
2363;DHT22;64265;51.664;7.626;2024-03-22T12:31:09;23.00;77.60
2363;DHT22;64265;51.664;7.626;2024-03-22T12:33:37;23.00;77.40
2363;DHT22;64265;51.664;7.626;2024-03-22T12:36:03;23.00;77.40
2363;DHT22;64265;51.664;7.626;2024-03-22T12:38:30;23.10;77.40
2363;DHT22;64265;51.664;7.626;2024-03-22T12:40:57;23.10;77.40
2363;DHT22;64265;51.664;7.626;2024-03-22T12:43:24;23.10;77.40
2363;DHT22;64265;51.664;7.626;2024-03-22T12:45:50;23.10;77.30
2363;DHT22;64265;51.664;7.626;2024-03-22T12:48:17;23.10;77.30
2363;DHT22;64265;51.664;7.626;2024-03-22T12:50:43;23.10;77.30
2363;DHT22;64265;51.664;7.626;2024-03-22T12:53:09;23.10;77.30
2363;DHT22;64265;51.664;7.626;2024-03-22T12:55:35;23.10;77.10
2363;DHT22;64265;51.664;7.626;2024-03-22T12:58:03;23.10;77.20
2363;DHT22;64265;51.664;7.626;2024-03-22T13:00:30;23.10;77.30
2363;DHT22;64265;51.664;7.626;2024-03-22T13:02:59;23.10;77.20
2363;DHT22;64265;51.664;7.626;2024-03-22T13:05:25;23.10;77.10
2363;DHT22;64265;51.664;7.626;2024-03-22T13:07:52;23.10;77.10
2363;DHT22;64265;51.664;7.626;2024-03-22T13:10:18;23.20;77.20
2363;DHT22;64265;51.664;7.626;2024-03-22T13:12:45;23.20;77.20
2363;DHT22;64265;51.664;7.626;2024-03-22T13:15:12;23.20;77.20
2363;DHT22;64265;51.664;7.626;2024-03-22T13:17:40;23.20;77.30
2363;DHT22;64265;51.664;7.626;2024-03-22T13:20:06;23.20;77.30
2363;DHT22;64265;51.664;7.626;2024-03-22T13:22:36;23.20;77.20
2363;DHT22;64265;51.664;7.626;2024-03-22T13:25:02;23.20;77.30
2363;DHT22;64265;51.664;7.626;2024-03-22T13:27:32;23.20;77.10
2363;DHT22;64265;51.664;7.626;2024-03-22T13:29:58;23.20;77.20
2363;DHT22;64265;51.664;7.626;2024-03-22T13:32:26;23.20;77.20
2363;DHT22;64265;51.664;7.626;2024-03-22T13:34:51;23.20;77.10
2363;DHT22;64265;51.664;7.626;2024-03-22T13:37:18;23.20;77.10
2363;DHT22;64265;51.664;7.626;2024-03-22T13:39:48;23.20;77.10
2363;DHT22;64265;51.664;7.626;2024-03-22T13:42:15;23.20;77.10
2363;DHT22;64265;51.664;7.626;2024-03-22T13:44:41;23.20;77.10
2363;DHT22;64265;51.664;7.626;2024-03-22T13:47:08;23.20;77.10
2363;DHT22;64265;51.664;7.626;2024-03-22T13:49:35;23.20;77.10
2363;DHT22;64265;51.664;7.626;2024-03-22T13:52:02;23.20;77.10
2363;DHT22;64265;51.664;7.626;2024-03-22T13:54:29;23.20;76.60
2363;DHT22;64265;51.664;7.626;2024-03-22T13:56:55;23.20;76.00
2363;DHT22;64265;51.664;7.626;2024-03-22T13:59:21;23.20;75.80
2363;DHT22;64265;51.664;7.626;2024-03-22T14:01:48;23.10;75.30
2363;DHT22;64265;51.664;7.626;2024-03-22T14:04:14;23.20;75.20
2363;DHT22;64265;51.664;7.626;2024-03-22T14:06:42;23.10;74.70
2363;DHT22;64265;51.664;7.626;2024-03-22T14:09:08;23.10;73.70
2363;DHT22;64265;51.664;7.626;2024-03-22T14:11:38;23.10;73.60
2363;DHT22;64265;51.664;7.626;2024-03-22T14:14:04;23.10;73.60
2363;DHT22;64265;51.664;7.626;2024-03-22T14:16:32;23.10;73.60
2363;DHT22;64265;51.664;7.626;2024-03-22T14:18:58;23.10;73.60
2363;DHT22;64265;51.664;7.626;2024-03-22T14:21:25;23.00;74.40
2363;DHT22;64265;51.664;7.626;2024-03-22T14:23:52;23.00;73.60
2363;DHT22;64265;51.664;7.626;2024-03-22T14:26:19;23.00;73.70
2363;DHT22;64265;51.664;7.626;2024-03-22T14:28:45;23.00;73.70
2363;DHT22;64265;51.664;7.626;2024-03-22T14:31:13;23.00;73.70
2363;DHT22;64265;51.664;7.626;2024-03-22T14:33:39;23.00;73.70
2363;DHT22;64265;51.664;7.626;2024-03-22T14:36:07;23.00;73.80
2363;DHT22;64265;51.664;7.626;2024-03-22T14:38:34;23.00;73.90
2363;DHT22;64265;51.664;7.626;2024-03-22T14:41:03;23.00;73.90
2363;DHT22;64265;51.664;7.626;2024-03-22T14:43:29;23.00;73.90
2363;DHT22;64265;51.664;7.626;2024-03-22T14:45:57;23.00;74.00
2363;DHT22;64265;51.664;7.626;2024-03-22T14:48:23;23.00;74.00
2363;DHT22;64265;51.664;7.626;2024-03-22T14:50:50;23.00;74.10
2363;DHT22;64265;51.664;7.626;2024-03-22T14:53:18;23.00;74.00
2363;DHT22;64265;51.664;7.626;2024-03-22T14:55:51;22.90;74.20
2363;DHT22;64265;51.664;7.626;2024-03-22T14:58:18;22.90;74.50
2363;DHT22;64265;51.664;7.626;2024-03-22T15:00:51;23.00;74.80
2363;DHT22;64265;51.664;7.626;2024-03-22T15:03:17;23.00;75.10
2363;DHT22;64265;51.664;7.626;2024-03-22T15:05:44;22.90;75.20
2363;DHT22;64265;51.664;7.626;2024-03-22T15:08:09;23.00;75.30
2363;DHT22;64265;51.664;7.626;2024-03-22T15:10:36;22.90;75.30
2363;DHT22;64265;51.664;7.626;2024-03-22T15:13:02;22.90;75.50
2363;DHT22;64265;51.664;7.626;2024-03-22T15:15:30;22.90;75.60
2363;DHT22;64265;51.664;7.626;2024-03-22T15:17:56;23.00;75.80
2363;DHT22;64265;51.664;7.626;2024-03-22T15:20:23;23.00;75.80
2363;DHT22;64265;51.664;7.626;2024-03-22T15:22:49;23.00;76.00
2363;DHT22;64265;51.664;7.626;2024-03-22T15:25:15;23.00;76.00
2363;DHT22;64265;51.664;7.626;2024-03-22T15:27:42;23.00;76.00
2363;DHT22;64265;51.664;7.626;2024-03-22T15:30:10;23.00;76.10
2363;DHT22;64265;51.664;7.626;2024-03-22T15:32:38;23.00;76.30
2363;DHT22;64265;51.664;7.626;2024-03-22T15:35:05;23.00;76.20
2363;DHT22;64265;51.664;7.626;2024-03-22T15:37:32;23.00;76.30
2363;DHT22;64265;51.664;7.626;2024-03-22T15:39:59;23.00;76.40
2363;DHT22;64265;51.664;7.626;2024-03-22T15:42:25;23.00;76.40